Time;durP1;ratioP1;P1;durP2;ratioP2;P2;SDS_P1;SDS_P2;PMS_P1;PMS_P2;Temp;Humidity;BMP_temperature;BMP_pressure;BME280_temperature;BME280_humidity;BME280_pressure;Samples;Min_cycle;Max_cycle;Signal;HPM_P1;HPM_P2
2021/12/21 00:02:21;;;;;;;;;;;20.60;40.00;;;;;;5067614;28;20354;-60
2021/12/21 00:04:47;;;;;;;;;;;20.60;39.90;;;;;;5067747;28;19947;-59
2021/12/21 00:07:14;;;;;;;;;;;20.60;39.90;;;;;;5069107;28;20261;-60
2021/12/21 00:09:41;;;;;;;;;;;20.60;39.90;;;;;;5068221;28;19974;-64
2021/12/21 00:12:13;;;;;;;;;;;20.60;39.90;;;;;;5069901;28;19920;-59
2021/12/21 00:14:49;;;;;;;;;;;20.60;39.90;;;;;;5072206;28;19979;-60
2021/12/21 00:17:29;;;;;;;;;;;20.60;39.90;;;;;;5073643;28;20352;-60
2021/12/21 00:20:11;;;;;;;;;;;20.60;39.80;;;;;;5068855;28;20452;-59
2021/12/21 00:25:27;;;;;;;;;;;20.60;39.80;;;;;;5065469;28;20369;-59
2021/12/21 00:27:55;;;;;;;;;;;20.60;39.80;;;;;;5068517;28;20284;-64
2021/12/21 00:30:22;;;;;;;;;;;20.60;39.80;;;;;;5072119;28;19925;-62
2021/12/21 00:32:49;;;;;;;;;;;20.60;39.80;;;;;;5070612;28;19951;-63
2021/12/21 00:35:16;;;;;;;;;;;20.60;39.80;;;;;;5071944;28;19978;-64
2021/12/21 00:37:43;;;;;;;;;;;20.60;39.80;;;;;;5071508;28;19971;-62
2021/12/21 00:40:11;;;;;;;;;;;20.60;39.80;;;;;;5071461;28;19963;-63
2021/12/21 00:42:38;;;;;;;;;;;20.60;39.80;;;;;;5072416;28;19924;-64
2021/12/21 00:45:07;;;;;;;;;;;20.50;39.70;;;;;;5071741;28;20438;-61
2021/12/21 00:47:39;;;;;;;;;;;20.60;39.80;;;;;;5071962;28;19932;-58
2021/12/21 00:50:08;;;;;;;;;;;20.50;39.70;;;;;;5073089;28;19927;-64
2021/12/21 00:52:35;;;;;;;;;;;20.50;39.70;;;;;;5072587;28;19928;-57
2021/12/21 00:55:02;;;;;;;;;;;20.60;39.80;;;;;;5073551;28;19943;-60
2021/12/21 00:57:29;;;;;;;;;;;20.50;39.60;;;;;;5073256;28;19928;-62
2021/12/21 00:59:55;;;;;;;;;;;20.50;39.70;;;;;;5052260;28;19924;-57
2021/12/21 01:02:24;;;;;;;;;;;20.50;40.30;;;;;;5070818;28;19920;-66
2021/12/21 01:04:51;;;;;;;;;;;20.50;39.60;;;;;;5061796;28;20012;-63
2021/12/21 01:07:26;;;;;;;;;;;20.50;39.60;;;;;;5030500;28;19929;-60
2021/12/21 01:10:45;;;;;;;;;;;20.50;39.60;;;;;;5027220;28;20016;-63
2021/12/21 01:13:17;;;;;;;;;;;20.50;39.60;;;;;;5033053;28;19925;-67
2021/12/21 01:16:00;;;;;;;;;;;20.50;39.60;;;;;;5031137;28;20265;-58
2021/12/21 01:18:35;;;;;;;;;;;20.50;39.60;;;;;;5031254;28;20606;-61
2021/12/21 01:21:07;;;;;;;;;;;20.50;39.60;;;;;;5026684;28;19929;-60
2021/12/21 01:26:31;;;;;;;;;;;20.50;39.50;;;;;;5026935;28;19928;-61
2021/12/21 01:29:06;;;;;;;;;;;20.50;39.60;;;;;;5029971;28;19925;-60
2021/12/21 01:31:42;;;;;;;;;;;20.50;39.60;;;;;;5028268;28;19921;-60
2021/12/21 01:34:22;;;;;;;;;;;20.50;39.50;;;;;;5031202;28;19964;-59
2021/12/21 01:36:55;;;;;;;;;;;20.50;39.50;;;;;;5035361;28;19921;-59
2021/12/21 01:39:51;;;;;;;;;;;20.50;39.50;;;;;;5031557;28;19984;-61
2021/12/21 01:42:26;;;;;;;;;;;20.50;39.50;;;;;;5028987;28;19921;-62
2021/12/21 02:49:24;;;;;;;;;;;20.50;39.20;;;;;;5062121;28;19917;-59
2021/12/21 02:51:51;;;;;;;;;;;20.50;39.20;;;;;;5069249;28;20312;-60
2021/12/21 02:54:18;;;;;;;;;;;20.50;39.20;;;;;;5071222;28;20268;-64
2021/12/21 02:56:45;;;;;;;;;;;20.50;39.20;;;;;;5064553;28;20011;-60
2021/12/21 02:59:12;;;;;;;;;;;20.50;39.10;;;;;;5069034;28;19997;-59
2021/12/21 03:01:39;;;;;;;;;;;20.50;39.20;;;;;;5070443;28;19921;-59
2021/12/21 03:04:07;;;;;;;;;;;20.50;39.10;;;;;;5070588;28;20296;-60
2021/12/21 03:09:41;;;;;;;;;;;20.40;39.00;;;;;;5068757;28;19921;-65
2021/12/21 03:12:12;;;;;;;;;;;20.40;39.10;;;;;;5064649;28;19924;-63
2021/12/21 03:14:39;;;;;;;;;;;20.40;39.00;;;;;;5071110;28;19920;-62
2021/12/21 03:17:06;;;;;;;;;;;20.40;39.00;;;;;;5068956;28;20352;-60
2021/12/21 03:19:33;;;;;;;;;;;20.40;39.00;;;;;;5070779;28;20333;-61
2021/12/21 03:22:01;;;;;;;;;;;20.40;39.00;;;;;;5070765;28;20307;-60
2021/12/21 03:24:28;;;;;;;;;;;20.40;39.00;;;;;;5070687;28;20089;-59
2021/12/21 03:26:55;;;;;;;;;;;20.50;39.00;;;;;;5069644;28;20366;-62
2021/12/21 03:29:22;;;;;;;;;;;20.40;38.90;;;;;;5086635;28;20034;-61
2021/12/21 03:31:49;;;;;;;;;;;20.40;38.90;;;;;;5087795;28;19920;-61
2021/12/21 03:34:16;;;;;;;;;;;20.40;38.90;;;;;;5071302;28;20023;-59
2021/12/21 03:36:42;;;;;;;;;;;20.40;38.90;;;;;;5070827;28;20023;-59
2021/12/21 03:39:16;;;;;;;;;;;20.40;38.90;;;;;;5069840;28;19920;-63
2021/12/21 03:41:46;;;;;;;;;;;20.40;38.90;;;;;;5069686;28;20422;-55
2021/12/21 03:44:12;;;;;;;;;;;20.40;38.80;;;;;;5083958;28;19963;-58
2021/12/21 03:46:45;;;;;;;;;;;20.40;38.80;;;;;;5069530;28;20268;-62
2021/12/21 03:49:41;;;;;;;;;;;20.40;38.80;;;;;;5068256;28;19932;-60
2021/12/21 03:51:59;;;;;;;;;;;20.40;38.80;;;;;;5071696;28;19928;-61
2021/12/21 03:54:27;;;;;;;;;;;20.40;38.80;;;;;;5073265;28;20442;-58
2021/12/21 03:56:54;;;;;;;;;;;20.40;38.80;;;;;;5069035;28;19927;-61
2021/12/21 03:59:21;;;;;;;;;;;20.40;38.80;;;;;;5072996;28;20021;-58
2021/12/21 04:01:47;;;;;;;;;;;20.40;38.80;;;;;;5073378;28;19974;-62
2021/12/21 04:04:17;;;;;;;;;;;20.40;38.70;;;;;;5073357;28;19926;-60
2021/12/21 04:06:43;;;;;;;;;;;20.40;38.70;;;;;;5073523;28;20266;-62
2021/12/21 04:09:10;;;;;;;;;;;20.40;38.70;;;;;;5073334;28;19974;-58
2021/12/21 04:11:38;;;;;;;;;;;20.40;38.70;;;;;;5073960;28;19924;-58
2021/12/21 04:14:05;;;;;;;;;;;20.40;38.70;;;;;;5066128;28;19929;-61
2021/12/21 04:16:32;;;;;;;;;;;20.40;38.70;;;;;;5072032;28;19928;-60
2021/12/21 04:18:58;;;;;;;;;;;20.40;38.70;;;;;;5072387;28;19921;-61
2021/12/21 04:21:25;;;;;;;;;;;20.40;38.70;;;;;;5072558;28;19926;-60
2021/12/21 04:23:52;;;;;;;;;;;20.40;38.70;;;;;;5070739;28;19952;-58
2021/12/21 04:26:18;;;;;;;;;;;20.40;38.70;;;;;;5072821;28;19978;-60
2021/12/21 04:28:46;;;;;;;;;;;20.40;38.70;;;;;;5072519;28;19971;-59
2021/12/21 04:31:13;;;;;;;;;;;20.40;38.70;;;;;;5072574;28;19936;-59
2021/12/21 04:33:42;;;;;;;;;;;20.40;38.70;;;;;;5073152;28;19921;-58
2021/12/21 04:36:09;;;;;;;;;;;20.40;38.70;;;;;;5072293;28;19926;-61
2021/12/21 04:38:41;;;;;;;;;;;20.40;38.60;;;;;;5073623;28;19929;-52
2021/12/21 04:41:12;;;;;;;;;;;20.40;38.60;;;;;;5089620;28;20030;-53
2021/12/21 04:43:39;;;;;;;;;;;20.40;38.60;;;;;;5068099;28;19952;-60
2021/12/21 04:46:07;;;;;;;;;;;20.40;38.60;;;;;;5072223;28;19928;-60
2021/12/21 04:48:34;;;;;;;;;;;20.40;38.60;;;;;;5072034;28;19926;-61
2021/12/21 04:51:00;;;;;;;;;;;20.40;38.50;;;;;;5072169;28;19925;-58
2021/12/21 04:53:27;;;;;;;;;;;20.40;38.50;;;;;;5071724;28;19964;-60
2021/12/21 04:55:54;;;;;;;;;;;20.40;38.50;;;;;;5071989;28;19939;-61
2021/12/21 04:58:21;;;;;;;;;;;20.40;39.10;;;;;;5071587;28;20407;-60
2021/12/21 05:00:48;;;;;;;;;;;20.40;38.50;;;;;;5072214;28;19924;-60
2021/12/21 05:03:16;;;;;;;;;;;20.40;38.50;;;;;;5068617;28;20007;-61
2021/12/21 05:05:42;;;;;;;;;;;20.40;38.50;;;;;;5073499;28;19920;-60
2021/12/21 05:08:11;;;;;;;;;;;20.40;38.50;;;;;;5071771;28;19927;-63
2021/12/21 05:10:46;;;;;;;;;;;20.40;38.50;;;;;;5070159;28;19963;-62
2021/12/21 05:13:13;;;;;;;;;;;20.40;38.50;;;;;;5071798;28;19986;-58
2021/12/21 05:15:39;;;;;;;;;;;20.40;38.50;;;;;;5070873;28;19966;-63
2021/12/21 05:18:06;;;;;;;;;;;20.40;38.40;;;;;;5073559;28;19921;-60
2021/12/21 05:20:34;;;;;;;;;;;20.40;38.40;;;;;;5071427;28;19927;-60
2021/12/21 05:23:01;;;;;;;;;;;20.40;38.40;;;;;;5072568;28;19928;-60
2021/12/21 05:25:27;;;;;;;;;;;20.40;38.40;;;;;;5071244;28;19924;-62
2021/12/21 05:27:54;;;;;;;;;;;20.40;38.40;;;;;;5071677;28;20007;-59
2021/12/21 05:30:22;;;;;;;;;;;20.40;38.40;;;;;;5068524;28;20410;-60
2021/12/21 05:32:49;;;;;;;;;;;20.40;38.30;;;;;;5072512;28;19924;-59
2021/12/21 05:35:15;;;;;;;;;;;20.40;38.30;;;;;;5070823;28;20012;-60
2021/12/21 05:37:44;;;;;;;;;;;20.40;38.30;;;;;;5070447;28;20280;-59
2021/12/21 05:40:13;;;;;;;;;;;20.40;38.30;;;;;;5072199;28;20288;-60
2021/12/21 05:42:40;;;;;;;;;;;20.30;38.20;;;;;;5070884;28;19920;-61
2021/12/21 05:45:08;;;;;;;;;;;20.40;38.30;;;;;;5072542;28;19927;-56
2021/12/21 05:47:34;;;;;;;;;;;20.30;38.20;;;;;;5070131;28;20070;-60
2021/12/21 05:50:01;;;;;;;;;;;20.30;38.20;;;;;;5070150;28;19920;-60
2021/12/21 05:52:28;;;;;;;;;;;20.30;38.20;;;;;;5071662;28;20011;-56
2021/12/21 05:54:56;;;;;;;;;;;20.30;38.20;;;;;;5070627;28;20298;-62
2021/12/21 05:57:22;;;;;;;;;;;20.30;38.10;;;;;;5070243;28;19946;-64
2021/12/21 05:59:49;;;;;;;;;;;20.30;38.20;;;;;;5071508;28;20353;-60
2021/12/21 06:02:17;;;;;;;;;;;20.30;38.10;;;;;;5069513;28;19936;-64
2021/12/21 06:04:43;;;;;;;;;;;20.30;38.10;;;;;;5070064;28;20365;-61
2021/12/21 06:07:10;;;;;;;;;;;20.30;38.10;;;;;;5070577;28;20342;-59
2021/12/21 06:09:37;;;;;;;;;;;20.30;38.10;;;;;;5068973;28;19924;-61
2021/12/21 06:12:11;;;;;;;;;;;20.30;38.10;;;;;;5068873;28;20443;-57
2021/12/21 06:23:01;;;;;;;;;;;20.30;38.00;;;;;;5070425;28;20031;-60
2021/12/21 06:25:39;;;;;;;;;;;20.30;38.00;;;;;;5069978;28;20385;-58
2021/12/21 06:28:08;;;;;;;;;;;20.30;38.00;;;;;;5070873;28;19927;-63
2021/12/21 06:30:36;;;;;;;;;;;20.30;38.70;;;;;;5069253;28;19927;-64
2021/12/21 06:33:02;;;;;;;;;;;20.30;38.00;;;;;;5069033;28;20280;-58
2021/12/21 06:35:29;;;;;;;;;;;20.30;38.00;;;;;;5071056;28;19920;-58
2021/12/21 06:37:56;;;;;;;;;;;20.30;38.00;;;;;;5071070;28;20008;-62
2021/12/21 06:40:23;;;;;;;;;;;20.30;38.00;;;;;;5069156;28;19920;-59
2021/12/21 06:42:51;;;;;;;;;;;20.30;38.00;;;;;;5068966;28;19936;-59
2021/12/21 06:45:29;;;;;;;;;;;20.30;38.00;;;;;;5070202;28;20020;-62
2021/12/21 06:53:24;;;;;;;;;;;20.30;37.90;;;;;;5070206;28;19971;-62
2021/12/21 06:55:51;;;;;;;;;;;20.30;37.90;;;;;;5069767;28;19943;-59
2021/12/21 06:58:17;;;;;;;;;;;20.30;37.90;;;;;;5069969;28;19927;-57
2021/12/21 07:00:47;;;;;;;;;;;20.30;37.90;;;;;;5086179;28;20358;-57
2021/12/21 07:03:13;;;;;;;;;;;20.30;37.80;;;;;;5069417;28;19920;-61
2021/12/21 07:05:40;;;;;;;;;;;20.30;37.80;;;;;;5071019;28;19927;-55
2021/12/21 07:08:08;;;;;;;;;;;20.30;37.80;;;;;;5063016;28;19932;-56
2021/12/21 07:10:38;;;;;;;;;;;20.30;37.80;;;;;;5066846;28;19920;-60
2021/12/21 07:19:03;;;;;;;;;;;20.30;37.70;;;;;;5069820;28;19924;-61
2021/12/21 07:21:30;;;;;;;;;;;20.30;37.70;;;;;;5073407;28;20022;-59
2021/12/21 07:23:56;;;;;;;;;;;20.30;37.70;;;;;;5072025;28;19956;-58
2021/12/21 07:26:23;;;;;;;;;;;20.30;37.70;;;;;;5073358;28;19926;-61
2021/12/21 07:28:50;;;;;;;;;;;20.30;37.70;;;;;;5073589;28;19920;-59
2021/12/21 07:31:17;;;;;;;;;;;20.30;37.60;;;;;;5070424;28;19927;-59
2021/12/21 07:33:45;;;;;;;;;;;20.30;37.60;;;;;;5067783;28;19927;-66
2021/12/21 07:36:11;;;;;;;;;;;20.30;37.60;;;;;;5073434;28;19925;-60
2021/12/21 07:38:38;;;;;;;;;;;20.30;37.60;;;;;;5072774;28;19950;-62
2021/12/21 07:41:05;;;;;;;;;;;20.30;37.60;;;;;;5073118;28;20222;-59
2021/12/21 07:43:31;;;;;;;;;;;20.30;37.60;;;;;;5072408;28;19956;-62
2021/12/21 07:45:58;;;;;;;;;;;20.30;37.50;;;;;;5072916;28;19958;-58
2021/12/21 07:48:25;;;;;;;;;;;20.30;37.60;;;;;;5069142;28;19951;-60
2021/12/21 07:50:55;;;;;;;;;;;20.30;37.50;;;;;;5072844;28;20257;-63
2021/12/21 07:53:22;;;;;;;;;;;20.30;37.50;;;;;;5072605;28;20341;-63
2021/12/21 07:55:49;;;;;;;;;;;20.30;37.50;;;;;;5072820;28;19924;-61
2021/12/21 07:58:16;;;;;;;;;;;20.30;37.50;;;;;;5072415;28;20384;-59
2021/12/21 08:00:43;;;;;;;;;;;20.30;37.50;;;;;;5072653;28;19927;-61
2021/12/21 08:03:13;;;;;;;;;;;20.30;37.40;;;;;;5072399;28;19924;-59
2021/12/21 08:05:40;;;;;;;;;;;20.30;37.40;;;;;;5072848;28;20280;-61
2021/12/21 08:08:14;;;;;;;;;;;20.30;37.40;;;;;;5071635;28;19921;-58
2021/12/21 08:10:46;;;;;;;;;;;20.30;37.50;;;;;;5075485;28;19924;-58
2021/12/21 08:13:15;;;;;;;;;;;20.30;37.60;;;;;;5066594;28;19932;-63
2021/12/21 08:15:41;;;;;;;;;;;20.30;37.60;;;;;;5071551;28;19931;-61
2021/12/21 08:18:08;;;;;;;;;;;20.30;37.70;;;;;;5072343;28;19924;-61
2021/12/21 08:20:35;;;;;;;;;;;20.30;37.70;;;;;;5071532;28;20312;-58
2021/12/21 08:23:02;;;;;;;;;;;20.30;37.80;;;;;;5067327;28;20269;-56
2021/12/21 08:25:30;;;;;;;;;;;20.30;37.80;;;;;;5054579;28;20490;-57
2021/12/21 08:27:57;;;;;;;;;;;20.30;37.90;;;;;;5073931;28;20400;-58
2021/12/21 08:30:24;;;;;;;;;;;20.30;37.90;;;;;;5073460;28;20329;-57
2021/12/21 08:32:51;;;;;;;;;;;20.30;37.90;;;;;;5075014;28;20377;-61
2021/12/21 08:35:17;;;;;;;;;;;20.30;38.00;;;;;;5071434;28;20267;-59
2021/12/21 08:37:51;;;;;;;;;;;20.30;38.00;;;;;;5069840;28;19921;-58
2021/12/21 08:40:18;;;;;;;;;;;20.30;38.00;;;;;;5071386;28;19927;-56
2021/12/21 08:42:48;;;;;;;;;;;20.30;38.00;;;;;;5096481;28;19971;-59
2021/12/21 08:45:14;;;;;;;;;;;20.30;38.10;;;;;;5079793;28;19920;-59
2021/12/21 08:47:41;;;;;;;;;;;20.30;38.00;;;;;;5070966;28;20368;-61
2021/12/21 08:50:09;;;;;;;;;;;20.30;38.10;;;;;;5069227;28;19970;-57
2021/12/21 08:52:36;;;;;;;;;;;20.30;38.10;;;;;;5075642;28;19976;-63
2021/12/21 08:55:03;;;;;;;;;;;20.30;38.20;;;;;;5070483;28;20336;-55
2021/12/21 08:57:30;;;;;;;;;;;20.30;38.20;;;;;;5070871;28;19931;-59
2021/12/21 08:59:58;;;;;;;;;;;20.30;38.20;;;;;;5074331;28;20013;-57
2021/12/21 09:02:27;;;;;;;;;;;20.30;38.20;;;;;;5093109;28;19924;-56
2021/12/21 09:04:54;;;;;;;;;;;20.30;38.20;;;;;;5068432;28;20281;-62
2021/12/21 09:07:21;;;;;;;;;;;20.30;38.20;;;;;;5069910;28;20292;-65
2021/12/21 09:09:48;;;;;;;;;;;20.30;38.30;;;;;;5071682;28;19932;-61
2021/12/21 09:12:15;;;;;;;;;;;20.30;38.30;;;;;;5070558;28;20366;-62
2021/12/21 09:14:41;;;;;;;;;;;20.30;38.30;;;;;;5069443;28;20061;-56
2021/12/21 09:17:10;;;;;;;;;;;20.30;38.30;;;;;;5070148;28;19956;-59
2021/12/21 09:19:36;;;;;;;;;;;20.30;38.40;;;;;;5070299;28;19924;-62
2021/12/21 09:22:03;;;;;;;;;;;20.40;38.40;;;;;;5099028;28;20023;-60
2021/12/21 09:24:31;;;;;;;;;;;20.40;38.50;;;;;;5077569;28;19981;-61
2021/12/21 09:26:58;;;;;;;;;;;20.40;38.50;;;;;;5071328;28;19967;-59
2021/12/21 09:29:24;;;;;;;;;;;20.40;38.50;;;;;;5071700;28;19920;-62
2021/12/21 09:31:51;;;;;;;;;;;20.40;38.50;;;;;;5071504;28;19924;-63
2021/12/21 09:34:19;;;;;;;;;;;20.40;38.50;;;;;;5068003;28;19924;-55
2021/12/21 09:36:46;;;;;;;;;;;20.40;38.50;;;;;;5052633;28;19920;-56
2021/12/21 09:39:12;;;;;;;;;;;20.40;38.50;;;;;;5059067;28;19933;-62
2021/12/21 09:41:39;;;;;;;;;;;20.40;38.50;;;;;;5065117;28;19920;-63
2021/12/21 09:44:06;;;;;;;;;;;20.40;38.40;;;;;;5059280;28;20023;-53
2021/12/21 09:46:33;;;;;;;;;;;20.40;38.20;;;;;;5058221;28;19924;-58
2021/12/21 09:49:00;;;;;;;;;;;20.40;38.10;;;;;;5063934;28;19925;-53
2021/12/21 09:51:28;;;;;;;;;;;20.40;38.00;;;;;;5067810;28;20059;-52
2021/12/21 09:53:55;;;;;;;;;;;20.40;38.10;;;;;;5058659;28;19921;-56
2021/12/21 09:56:22;;;;;;;;;;;20.40;38.10;;;;;;5066040;28;19921;-58
2021/12/21 09:58:49;;;;;;;;;;;20.40;38.10;;;;;;5066848;28;19927;-60
2021/12/21 10:01:18;;;;;;;;;;;20.40;38.10;;;;;;5060957;28;19932;-54
2021/12/21 10:03:45;;;;;;;;;;;20.40;38.20;;;;;;5085375;28;20011;-65
2021/12/21 10:06:12;;;;;;;;;;;20.40;38.20;;;;;;5065695;28;19953;-63
2021/12/21 10:08:41;;;;;;;;;;;20.40;38.20;;;;;;5068546;28;20014;-54
2021/12/21 10:11:08;;;;;;;;;;;20.40;38.20;;;;;;5064462;28;20389;-61
2021/12/21 10:13:35;;;;;;;;;;;20.40;38.30;;;;;;5064758;28;19921;-65
2021/12/21 10:16:02;;;;;;;;;;;20.40;38.30;;;;;;5065180;28;19993;-61
2021/12/21 10:18:30;;;;;;;;;;;20.40;38.40;;;;;;5076271;28;20266;-52
2021/12/21 10:20:57;;;;;;;;;;;20.40;38.30;;;;;;5063901;28;20361;-55
2021/12/21 10:23:24;;;;;;;;;;;20.40;38.30;;;;;;5061886;28;20227;-65
2021/12/21 10:25:53;;;;;;;;;;;20.40;38.40;;;;;;5058352;28;20023;-61
2021/12/21 10:28:30;;;;;;;;;;;20.40;38.40;;;;;;5063117;28;19952;-63
2021/12/21 10:30:57;;;;;;;;;;;20.40;38.40;;;;;;5062649;28;19943;-53
2021/12/21 10:33:24;;;;;;;;;;;20.40;38.50;;;;;;5078800;28;20511;-52
2021/12/21 10:35:53;;;;;;;;;;;20.40;38.50;;;;;;5063960;28;20311;-66
2021/12/21 10:38:27;;;;;;;;;;;20.40;38.50;;;;;;5063258;28;19960;-56
2021/12/21 10:40:59;;;;;;;;;;;20.40;38.60;;;;;;5062299;28;20011;-53
2021/12/21 10:43:27;;;;;;;;;;;20.40;38.60;;;;;;5060526;28;19997;-55
2021/12/21 10:45:54;;;;;;;;;;;20.40;38.60;;;;;;5063858;28;20081;-59
2021/12/21 10:48:22;;;;;;;;;;;20.40;38.70;;;;;;5062345;28;19928;-63
2021/12/21 10:50:49;;;;;;;;;;;20.50;38.70;;;;;;5063614;28;19932;-59
2021/12/21 10:53:16;;;;;;;;;;;20.50;38.80;;;;;;5067869;28;19920;-63
2021/12/21 10:55:44;;;;;;;;;;;20.50;38.80;;;;;;5061601;28;20306;-67
2021/12/21 10:58:15;;;;;;;;;;;20.50;38.80;;;;;;5078508;28;20377;-56
2021/12/21 11:00:44;;;;;;;;;;;20.50;38.80;;;;;;5062021;28;20311;-57
2021/12/21 11:03:11;;;;;;;;;;;20.50;38.90;;;;;;5064713;28;19963;-61
2021/12/21 11:05:38;;;;;;;;;;;20.50;38.90;;;;;;5063051;28;19935;-57
2021/12/21 11:08:16;;;;;;;;;;;20.50;38.90;;;;;;5059467;28;21537;-60
2021/12/21 11:10:51;;;;;;;;;;;20.50;38.90;;;;;;5082067;28;19948;-62
2021/12/21 11:13:22;;;;;;;;;;;20.60;39.00;;;;;;5062557;28;19940;-68
2021/12/21 11:15:52;;;;;;;;;;;20.60;39.00;;;;;;5079656;28;20811;-56
2021/12/21 11:18:21;;;;;;;;;;;20.60;39.10;;;;;;5060901;28;19928;-67
2021/12/21 11:20:48;;;;;;;;;;;20.60;39.10;;;;;;5061626;28;19920;-73
2021/12/21 11:23:15;;;;;;;;;;;20.60;39.10;;;;;;5062137;28;19920;-67
2021/12/21 11:25:42;;;;;;;;;;;20.60;39.20;;;;;;5065815;28;19932;-56
2021/12/21 11:28:10;;;;;;;;;;;20.60;39.10;;;;;;5063760;28;20314;-59
2021/12/21 11:30:39;;;;;;;;;;;20.60;39.20;;;;;;5066184;28;19935;-65
2021/12/21 11:33:07;;;;;;;;;;;20.60;39.80;;;;;;5064402;28;20066;-61
2021/12/21 11:38:18;;;;;;;;;;;20.60;39.20;;;;;;5062688;28;20035;-58
2021/12/21 11:40:46;;;;;;;;;;;20.70;39.30;;;;;;5064633;28;19939;-61
2021/12/21 11:43:22;;;;;;;;;;;20.70;39.30;;;;;;5061183;28;20217;-60
2021/12/21 11:45:51;;;;;;;;;;;20.70;39.30;;;;;;5061189;28;20023;-59
2021/12/21 11:48:36;;;;;;;;;;;20.70;39.30;;;;;;5061088;28;19920;-60
2021/12/21 11:51:04;;;;;;;;;;;20.70;39.40;;;;;;5066001;28;19954;-60
2021/12/21 11:53:31;;;;;;;;;;;20.70;39.40;;;;;;5065798;28;19928;-61
2021/12/21 11:55:58;;;;;;;;;;;20.70;39.40;;;;;;5062393;28;19958;-65
2021/12/21 11:58:26;;;;;;;;;;;20.70;39.40;;;;;;5078477;28;19920;-61
2021/12/21 12:00:58;;;;;;;;;;;20.70;39.40;;;;;;5062621;28;19932;-57
2021/12/21 12:03:25;;;;;;;;;;;20.70;39.40;;;;;;5064969;28;20234;-62
2021/12/21 12:05:54;;;;;;;;;;;20.70;39.40;;;;;;5066015;28;20142;-51
2021/12/21 12:08:21;;;;;;;;;;;20.70;39.50;;;;;;5066367;28;20361;-59
2021/12/21 12:10:48;;;;;;;;;;;20.70;39.40;;;;;;5068597;28;19920;-60
2021/12/21 12:13:15;;;;;;;;;;;20.70;39.50;;;;;;5069891;28;19927;-60
2021/12/21 12:15:43;;;;;;;;;;;20.70;39.50;;;;;;5066764;28;20010;-62
2021/12/21 12:18:19;;;;;;;;;;;20.70;39.50;;;;;;5081037;28;19925;-60
2021/12/21 12:20:46;;;;;;;;;;;20.70;39.50;;;;;;5082422;28;20053;-64
2021/12/21 12:23:13;;;;;;;;;;;20.70;39.50;;;;;;5074045;28;19920;-58
2021/12/21 12:25:48;;;;;;;;;;;20.70;39.50;;;;;;5066359;28;19952;-61
2021/12/21 12:28:20;;;;;;;;;;;20.70;39.50;;;;;;5067814;28;20027;-66
2021/12/21 12:30:47;;;;;;;;;;;20.70;39.60;;;;;;5075770;28;19945;-66
2021/12/21 12:33:14;;;;;;;;;;;20.70;39.50;;;;;;5067230;28;20029;-63
2021/12/21 12:35:43;;;;;;;;;;;20.70;39.60;;;;;;5081156;28;19933;-67
2021/12/21 12:38:16;;;;;;;;;;;20.80;39.70;;;;;;5067533;28;20023;-64
2021/12/21 12:40:43;;;;;;;;;;;20.80;39.70;;;;;;5066886;28;19938;-67
2021/12/21 12:43:11;;;;;;;;;;;20.80;39.70;;;;;;5066533;28;19921;-66
2021/12/21 12:45:38;;;;;;;;;;;20.80;39.70;;;;;;5067898;28;19931;-60
2021/12/21 12:48:05;;;;;;;;;;;20.80;39.70;;;;;;5066261;28;19931;-57
2021/12/21 12:50:37;;;;;;;;;;;20.80;39.70;;;;;;5071547;28;19972;-66
2021/12/21 12:53:06;;;;;;;;;;;20.80;39.70;;;;;;5064157;28;20273;-62
2021/12/21 12:55:37;;;;;;;;;;;20.80;39.80;;;;;;5065670;28;19974;-60
2021/12/21 12:58:06;;;;;;;;;;;20.70;39.70;;;;;;5067124;28;19928;-60
2021/12/21 13:00:33;;;;;;;;;;;20.80;39.80;;;;;;5064930;28;19967;-60
2021/12/21 13:03:01;;;;;;;;;;;20.70;39.70;;;;;;5066650;28;20013;-60
2021/12/21 13:05:32;;;;;;;;;;;20.70;39.70;;;;;;5065140;28;19928;-61
2021/12/21 13:08:25;;;;;;;;;;;20.80;39.80;;;;;;5084728;28;19921;-61
2021/12/21 13:10:52;;;;;;;;;;;20.80;39.80;;;;;;5065051;28;20027;-65
2021/12/21 13:13:20;;;;;;;;;;;20.80;39.80;;;;;;5061853;28;20014;-72
2021/12/21 13:15:47;;;;;;;;;;;20.80;39.90;;;;;;5064105;28;20012;-59
2021/12/21 13:18:17;;;;;;;;;;;20.80;39.90;;;;;;5062178;28;20015;-60
2021/12/21 13:20:44;;;;;;;;;;;20.80;39.90;;;;;;5064645;28;19921;-64
2021/12/21 13:23:13;;;;;;;;;;;20.80;39.90;;;;;;5063933;28;20001;-63
2021/12/21 13:25:40;;;;;;;;;;;20.80;40.00;;;;;;5064645;28;19931;-61
2021/12/21 13:28:10;;;;;;;;;;;20.80;40.00;;;;;;5080241;28;20365;-56
2021/12/21 13:30:37;;;;;;;;;;;20.80;40.00;;;;;;5062017;28;19932;-59
2021/12/21 13:36:30;;;;;;;;;;;20.80;40.00;;;;;;5249019;22;19951;-61
2021/12/21 13:38:58;;;;;;;;;;;20.80;40.00;;;;;;5020754;28;19925;-60
2021/12/21 13:41:25;;;;;;;;;;;20.80;40.10;;;;;;5024120;28;19929;-60
2021/12/21 13:43:53;;;;;;;;;;;20.80;40.10;;;;;;5033640;28;19929;-59
2021/12/21 13:46:19;;;;;;;;;;;20.80;40.00;;;;;;5022633;28;19947;-61
2021/12/21 13:48:50;;;;;;;;;;;20.80;40.10;;;;;;5025145;28;19969;-58
2021/12/21 13:51:17;;;;;;;;;;;20.80;40.10;;;;;;5019548;28;19925;-57
2021/12/21 13:53:44;;;;;;;;;;;20.80;40.10;;;;;;5035876;28;20024;-62
2021/12/21 13:56:13;;;;;;;;;;;20.80;40.10;;;;;;5036830;28;20035;-66
2021/12/21 13:58:40;;;;;;;;;;;20.80;40.00;;;;;;5020992;28;19929;-60
2021/12/21 14:01:07;;;;;;;;;;;20.80;40.10;;;;;;5035602;28;20040;-60
2021/12/21 14:03:44;;;;;;;;;;;20.80;40.10;;;;;;5019131;28;19991;-63
2021/12/21 14:06:13;;;;;;;;;;;20.80;40.10;;;;;;5018859;28;19936;-64
2021/12/21 14:08:40;;;;;;;;;;;20.80;40.10;;;;;;5022952;28;19933;-62
2021/12/21 14:11:08;;;;;;;;;;;20.80;40.10;;;;;;5026271;28;20016;-63
2021/12/21 14:13:36;;;;;;;;;;;20.80;40.10;;;;;;5025965;28;19925;-62
2021/12/21 14:16:07;;;;;;;;;;;20.80;40.10;;;;;;5020657;28;19975;-60
2021/12/21 14:18:34;;;;;;;;;;;20.80;40.10;;;;;;5019627;28;19933;-59
2021/12/21 14:21:02;;;;;;;;;;;20.80;40.10;;;;;;5038687;28;19929;-59
2021/12/21 14:23:29;;;;;;;;;;;20.80;40.20;;;;;;5026698;28;19983;-69
2021/12/21 14:26:04;;;;;;;;;;;20.80;40.10;;;;;;5019973;28;20303;-63
2021/12/21 14:28:31;;;;;;;;;;;20.80;40.10;;;;;;5023926;28;20020;-62
2021/12/21 14:31:04;;;;;;;;;;;20.80;40.20;;;;;;5022530;28;20363;-54
2021/12/21 14:33:44;;;;;;;;;;;20.80;40.20;;;;;;5033180;28;20461;-58
2021/12/21 14:36:13;;;;;;;;;;;20.80;40.20;;;;;;5017326;28;19980;-72
2021/12/21 14:38:49;;;;;;;;;;;20.80;40.20;;;;;;5041690;28;19925;-58
2021/12/21 14:41:19;;;;;;;;;;;20.80;40.20;;;;;;5039512;28;19929;-61
2021/12/21 14:43:45;;;;;;;;;;;20.70;40.10;;;;;;5035466;28;19979;-63
2021/12/21 14:46:19;;;;;;;;;;;20.80;40.20;;;;;;5023681;28;19925;-60
2021/12/21 14:48:47;;;;;;;;;;;20.70;40.10;;;;;;5017303;28;20310;-63
2021/12/21 14:51:15;;;;;;;;;;;20.70;40.10;;;;;;5020925;28;20286;-58
2021/12/21 14:53:47;;;;;;;;;;;20.80;40.20;;;;;;5033919;28;20023;-63
2021/12/21 14:56:15;;;;;;;;;;;20.80;40.20;;;;;;5035538;28;19937;-59
2021/12/21 14:58:41;;;;;;;;;;;20.70;40.10;;;;;;5040241;28;20394;-60
2021/12/21 15:01:08;;;;;;;;;;;20.70;40.10;;;;;;5019481;28;19935;-60
2021/12/21 15:03:40;;;;;;;;;;;20.80;40.20;;;;;;5020358;28;20008;-58
2021/12/21 15:06:07;;;;;;;;;;;20.80;40.30;;;;;;5034635;28;20028;-58
2021/12/21 15:08:34;;;;;;;;;;;20.80;40.20;;;;;;5037039;28;19925;-63
2021/12/21 15:11:01;;;;;;;;;;;20.80;40.20;;;;;;5037498;28;19936;-59
2021/12/21 15:13:28;;;;;;;;;;;20.70;40.10;;;;;;5019241;28;19937;-63
2021/12/21 15:15:54;;;;;;;;;;;20.80;40.20;;;;;;5018967;28;19976;-59
2021/12/21 15:18:22;;;;;;;;;;;20.70;40.10;;;;;;5019524;28;20420;-58
2021/12/21 15:20:51;;;;;;;;;;;20.80;40.20;;;;;;5025230;28;19995;-59
2021/12/21 15:23:17;;;;;;;;;;;20.80;40.20;;;;;;5027496;28;19981;-61
2021/12/21 15:25:44;;;;;;;;;;;20.80;40.20;;;;;;5020260;28;20023;-64
2021/12/21 15:28:11;;;;;;;;;;;20.80;40.20;;;;;;5023916;28;20048;-62
2021/12/21 15:30:38;;;;;;;;;;;20.80;40.20;;;;;;5037199;28;19972;-59
2021/12/21 15:33:04;;;;;;;;;;;20.80;40.20;;;;;;5023843;28;19935;-62
2021/12/21 15:35:33;;;;;;;;;;;20.80;40.30;;;;;;5035412;28;19929;-60
2021/12/21 15:38:01;;;;;;;;;;;20.80;40.30;;;;;;5022168;28;19979;-59
2021/12/21 15:40:28;;;;;;;;;;;20.80;40.20;;;;;;5022842;28;19964;-67
2021/12/21 15:42:55;;;;;;;;;;;20.70;40.10;;;;;;5021601;28;19936;-63
2021/12/21 15:45:22;;;;;;;;;;;20.80;40.20;;;;;;5023174;28;20020;-57
2021/12/21 15:47:48;;;;;;;;;;;20.70;40.20;;;;;;5039687;28;20514;-58
2021/12/21 15:50:15;;;;;;;;;;;20.70;40.10;;;;;;5041096;28;20316;-60
2021/12/21 15:52:42;;;;;;;;;;;20.70;40.20;;;;;;5038257;28;19945;-60
2021/12/21 15:55:12;;;;;;;;;;;20.80;40.20;;;;;;5019227;28;20245;-67
2021/12/21 15:57:39;;;;;;;;;;;20.70;40.20;;;;;;5021327;28;20100;-67
2021/12/21 16:00:06;;;;;;;;;;;20.70;40.20;;;;;;5034444;28;20463;-64
2021/12/21 16:02:33;;;;;;;;;;;20.70;40.20;;;;;;5038753;28;19925;-65
2021/12/21 16:05:00;;;;;;;;;;;20.70;40.20;;;;;;5028090;28;20226;-58